FIN9YC EFHK-EIDW
Flight info
| Callsign | FIN9YC |
|---|---|
| Flight time | 2h 43m |
| Altitude | 36000 |
| Route | ADIVO Y365 POGOK DCT OGLOB DCT ELTOK DCT VATEX DCT ALOTI DCT NELBO DCT NIMAT NIMAT3R |
| Aircraft | A319/M-SDE1E2E3FGIJ1M1RWXYZ/LB1 |
Departure
| Time | 2026-04-21 12:55 |
|---|---|
| Airport | Helsinki Vantaa Airport (EFHK) |
Arrival
| Time | 2026-04-21 15:38 |
|---|---|
| Airport | Dublin Airport (EIDW) |
| Time | Latitude | Longitude | Altitude | Speed | Heading |
|---|---|---|---|---|---|
| 2026-04-21 12:35 | 60.31200 | 24.96198 | 167 ft | 0 kts | 137° |
| 2026-04-21 12:47 | 60.31209 | 24.96182 | 166 ft | 4 kts | 137° |
| 2026-04-21 12:47 | 60.31228 | 24.96145 | 166 ft | 4 kts | 137° |
| 2026-04-21 12:48 | 60.31248 | 24.96108 | 166 ft | 4 kts | 142° |
| 2026-04-21 12:48 | 60.31270 | 24.96084 | 166 ft | 4 kts | 197° |
| 2026-04-21 12:48 | 60.31285 | 24.96107 | 166 ft | 4 kts | 227° |
| 2026-04-21 12:48 | 60.31292 | 24.96121 | 166 ft | 0 kts | 227° |
| 2026-04-21 12:51 | 60.31291 | 24.96119 | 166 ft | 1 kts | 227° |
| 2026-04-21 12:51 | 60.31261 | 24.96052 | 166 ft | 10 kts | 227° |
| 2026-04-21 12:51 | 60.31221 | 24.95909 | 166 ft | 12 kts | 272° |
| 2026-04-21 12:52 | 60.31229 | 24.95742 | 166 ft | 12 kts | 237° |
| 2026-04-21 12:52 | 60.31170 | 24.95613 | 166 ft | 12 kts | 233° |
| 2026-04-21 12:52 | 60.31192 | 24.95468 | 166 ft | 12 kts | 319° |
| 2026-04-21 12:52 | 60.31257 | 24.95347 | 166 ft | 13 kts | 316° |
| 2026-04-21 12:53 | 60.31323 | 24.95224 | 166 ft | 13 kts | 318° |
| 2026-04-21 12:53 | 60.31391 | 24.95099 | 167 ft | 13 kts | 316° |
| 2026-04-21 12:53 | 60.31445 | 24.94963 | 168 ft | 11 kts | 290° |
| 2026-04-21 12:53 | 60.31410 | 24.94815 | 165 ft | 14 kts | 234° |
| 2026-04-21 12:54 | 60.31424 | 24.94677 | 163 ft | 7 kts | 317° |
| 2026-04-21 12:54 | 60.31459 | 24.94614 | 164 ft | 7 kts | 317° |
| 2026-04-21 12:54 | 60.31494 | 24.94532 | 163 ft | 9 kts | 302° |
| 2026-04-21 12:54 | 60.31539 | 24.94538 | 164 ft | 8 kts | 49° |
| 2026-04-21 12:55 | 60.31668 | 24.94825 | 169 ft | 60 kts | 47° |
| 2026-04-21 12:55 | 60.32107 | 24.95788 | 175 ft | 124 kts | 47° |
| 2026-04-21 12:55 | 60.32778 | 24.97297 | 393 ft | 152 kts | 46° |
| 2026-04-21 12:55 | 60.33483 | 24.98884 | 1029 ft | 153 kts | 45° |
| 2026-04-21 12:56 | 60.34209 | 25.00477 | 1722 ft | 154 kts | 45° |
| 2026-04-21 12:56 | 60.34937 | 25.02055 | 2488 ft | 153 kts | 43° |
| 2026-04-21 12:56 | 60.35701 | 25.03711 | 2949 ft | 169 kts | 44° |
| 2026-04-21 12:56 | 60.36559 | 25.05558 | 3299 ft | 192 kts | 45° |
| 2026-04-21 12:57 | 60.37689 | 25.07234 | 3727 ft | 214 kts | 17° |
| 2026-04-21 12:57 | 60.39229 | 25.07266 | 4125 ft | 238 kts | 340° |
| 2026-04-21 12:57 | 60.40535 | 25.05082 | 4828 ft | 257 kts | 302° |
| 2026-04-21 12:57 | 60.40977 | 25.01521 | 5736 ft | 269 kts | 272° |
| 2026-04-21 12:58 | 60.40764 | 24.97690 | 6633 ft | 278 kts | 261° |
| 2026-04-21 12:58 | 60.40294 | 24.93852 | 7501 ft | 284 kts | 257° |
| 2026-04-21 12:58 | 60.39751 | 24.89970 | 8382 ft | 289 kts | 257° |
| 2026-04-21 12:58 | 60.39215 | 24.86028 | 9281 ft | 293 kts | 259° |
| 2026-04-21 12:59 | 60.38878 | 24.83371 | 9853 ft | 296 kts | 260° |
| 2026-04-21 12:59 | 60.38387 | 24.79208 | 10481 ft | 309 kts | 261° |
| 2026-04-21 12:59 | 60.37907 | 24.74806 | 10763 ft | 333 kts | 262° |
| 2026-04-21 12:59 | 60.37421 | 24.70129 | 11280 ft | 345 kts | 262° |
| 2026-04-21 13:00 | 60.36929 | 24.65347 | 12016 ft | 350 kts | 262° |
| 2026-04-21 13:00 | 60.36428 | 24.60494 | 12783 ft | 354 kts | 262° |
| 2026-04-21 13:00 | 60.35923 | 24.55659 | 13550 ft | 358 kts | 262° |
| 2026-04-21 13:00 | 60.35401 | 24.50709 | 14285 ft | 362 kts | 262° |
| 2026-04-21 13:01 | 60.34872 | 24.45708 | 14941 ft | 366 kts | 262° |
| 2026-04-21 13:01 | 60.34337 | 24.40645 | 15605 ft | 370 kts | 262° |
| 2026-04-21 13:01 | 60.33795 | 24.35540 | 16284 ft | 373 kts | 262° |
| 2026-04-21 13:01 | 60.33246 | 24.30383 | 16945 ft | 377 kts | 262° |
| 2026-04-21 13:02 | 60.32690 | 24.25185 | 17606 ft | 381 kts | 262° |
| 2026-04-21 13:02 | 60.32126 | 24.19944 | 18261 ft | 385 kts | 262° |
| 2026-04-21 13:02 | 60.30967 | 24.09289 | 19421 ft | 392 kts | 261° |
| 2026-04-21 13:03 | 60.30379 | 24.03885 | 20008 ft | 395 kts | 261° |
| 2026-04-21 13:03 | 60.29784 | 23.98438 | 20579 ft | 399 kts | 261° |
| 2026-04-21 13:03 | 60.29188 | 23.92954 | 21146 ft | 402 kts | 261° |
| 2026-04-21 13:03 | 60.28590 | 23.87429 | 21712 ft | 405 kts | 261° |
| 2026-04-21 13:04 | 60.27987 | 23.81851 | 22274 ft | 409 kts | 261° |
| 2026-04-21 13:04 | 60.27380 | 23.76233 | 22820 ft | 412 kts | 261° |
| 2026-04-21 13:04 | 60.26763 | 23.70561 | 23350 ft | 416 kts | 261° |
| 2026-04-21 13:04 | 60.26147 | 23.64932 | 23843 ft | 419 kts | 261° |
| 2026-04-21 13:05 | 60.25513 | 23.59183 | 24282 ft | 422 kts | 261° |
| 2026-04-21 13:05 | 60.24872 | 23.53400 | 24719 ft | 425 kts | 261° |
| 2026-04-21 13:05 | 60.24225 | 23.47582 | 25154 ft | 427 kts | 261° |
| 2026-04-21 13:05 | 60.23572 | 23.41728 | 25586 ft | 430 kts | 261° |
| 2026-04-21 13:06 | 60.22915 | 23.35851 | 26004 ft | 432 kts | 261° |
| 2026-04-21 13:06 | 60.22253 | 23.29931 | 26423 ft | 435 kts | 261° |
| 2026-04-21 13:06 | 60.21583 | 23.23980 | 26837 ft | 437 kts | 261° |
| 2026-04-21 13:06 | 60.20905 | 23.18007 | 27252 ft | 440 kts | 261° |
| 2026-04-21 13:07 | 60.20216 | 23.11984 | 27668 ft | 442 kts | 261° |
| 2026-04-21 13:07 | 60.19520 | 23.05943 | 28075 ft | 445 kts | 261° |
| 2026-04-21 13:07 | 60.18818 | 22.99872 | 28472 ft | 447 kts | 261° |
| 2026-04-21 13:07 | 60.18109 | 22.93762 | 28863 ft | 450 kts | 261° |
| 2026-04-21 13:08 | 60.17395 | 22.87625 | 29249 ft | 452 kts | 261° |
| 2026-04-21 13:08 | 60.16677 | 22.81456 | 29624 ft | 455 kts | 261° |
| 2026-04-21 13:08 | 60.15963 | 22.75333 | 29998 ft | 458 kts | 261° |
| 2026-04-21 13:08 | 60.15222 | 22.69012 | 30337 ft | 460 kts | 261° |
| 2026-04-21 13:09 | 60.14481 | 22.62743 | 30622 ft | 462 kts | 260° |
| 2026-04-21 13:09 | 60.13740 | 22.56534 | 30910 ft | 465 kts | 260° |
| 2026-04-21 13:09 | 60.12982 | 22.50202 | 31198 ft | 467 kts | 260° |
| 2026-04-21 13:09 | 60.12219 | 22.43859 | 31487 ft | 469 kts | 260° |
| 2026-04-21 13:10 | 60.11452 | 22.37501 | 31866 ft | 469 kts | 260° |
| 2026-04-21 13:10 | 60.10684 | 22.31159 | 32254 ft | 468 kts | 260° |
| 2026-04-21 13:10 | 60.09911 | 22.24811 | 32633 ft | 468 kts | 260° |
| 2026-04-21 13:10 | 60.09136 | 22.18481 | 33017 ft | 468 kts | 259° |
| 2026-04-21 13:11 | 60.08357 | 22.12150 | 33385 ft | 468 kts | 259° |
| 2026-04-21 13:11 | 60.07578 | 22.05826 | 33754 ft | 468 kts | 259° |
| 2026-04-21 13:11 | 60.06797 | 21.99499 | 34134 ft | 467 kts | 259° |
| 2026-04-21 13:11 | 60.06014 | 21.93174 | 34464 ft | 467 kts | 259° |
| 2026-04-21 13:12 | 60.05230 | 21.86867 | 34762 ft | 467 kts | 259° |
| 2026-04-21 13:12 | 60.04441 | 21.80555 | 35065 ft | 467 kts | 259° |
| 2026-04-21 13:12 | 60.03649 | 21.74253 | 35360 ft | 467 kts | 259° |
| 2026-04-21 13:12 | 60.02852 | 21.67957 | 35640 ft | 467 kts | 259° |
| 2026-04-21 13:13 | 60.02051 | 21.61662 | 35912 ft | 467 kts | 259° |
| 2026-04-21 13:13 | 60.01234 | 21.55270 | 36157 ft | 468 kts | 258° |
| 2026-04-21 13:13 | 59.99617 | 21.42713 | 36256 ft | 465 kts | 259° |
| 2026-04-21 13:14 | 59.98917 | 21.29996 | 36261 ft | 459 kts | 271° |
| 2026-04-21 13:14 | 59.98626 | 21.17269 | 36267 ft | 459 kts | 271° |
| 2026-04-21 13:15 | 59.98298 | 21.04538 | 36267 ft | 459 kts | 271° |
| 2026-04-21 13:15 | 59.97959 | 20.91810 | 36273 ft | 459 kts | 271° |
| 2026-04-21 13:16 | 59.97618 | 20.79086 | 36278 ft | 459 kts | 271° |
| 2026-04-21 13:16 | 59.97269 | 20.66360 | 36275 ft | 459 kts | 270° |
| 2026-04-21 13:17 | 59.96897 | 20.53636 | 36283 ft | 459 kts | 270° |
| 2026-04-21 13:17 | 59.96584 | 20.43065 | 36284 ft | 459 kts | 270° |
| 2026-04-21 13:18 | 59.96390 | 20.36416 | 36287 ft | 459 kts | 270° |
| 2026-04-21 13:18 | 59.96001 | 20.23788 | 36290 ft | 459 kts | 270° |
| 2026-04-21 13:19 | 59.95586 | 20.11081 | 36295 ft | 459 kts | 270° |
| 2026-04-21 13:19 | 59.95157 | 19.98297 | 36301 ft | 459 kts | 270° |
| 2026-04-21 13:20 | 59.94727 | 19.85674 | 36300 ft | 459 kts | 270° |
| 2026-04-21 13:20 | 59.94286 | 19.72963 | 36302 ft | 459 kts | 270° |
| 2026-04-21 13:21 | 59.93832 | 19.60252 | 36306 ft | 459 kts | 269° |
| 2026-04-21 13:21 | 59.93361 | 19.47550 | 36306 ft | 459 kts | 269° |
| 2026-04-21 13:22 | 59.92902 | 19.34859 | 36314 ft | 459 kts | 270° |
| 2026-04-21 13:22 | 59.92460 | 19.22159 | 36322 ft | 459 kts | 269° |
| 2026-04-21 13:23 | 59.91997 | 19.09541 | 36323 ft | 459 kts | 269° |
| 2026-04-21 13:23 | 59.91517 | 18.96851 | 36324 ft | 459 kts | 269° |
| 2026-04-21 13:24 | 59.91024 | 18.84173 | 36322 ft | 459 kts | 269° |
| 2026-04-21 13:24 | 59.90519 | 18.71497 | 36321 ft | 459 kts | 269° |
| 2026-04-21 13:25 | 59.90007 | 18.58827 | 36323 ft | 459 kts | 269° |
| 2026-04-21 13:25 | 59.89495 | 18.46551 | 36323 ft | 458 kts | 269° |
| 2026-04-21 13:26 | 59.88956 | 18.33894 | 36321 ft | 458 kts | 268° |
| 2026-04-21 13:26 | 59.88403 | 18.21251 | 36317 ft | 458 kts | 268° |
| 2026-04-21 13:27 | 59.87849 | 18.08697 | 36316 ft | 458 kts | 268° |
| 2026-04-21 13:27 | 59.87284 | 17.96077 | 36329 ft | 458 kts | 268° |
| 2026-04-21 13:28 | 59.86700 | 17.83466 | 36331 ft | 457 kts | 268° |
| 2026-04-21 13:28 | 59.86095 | 17.70854 | 36333 ft | 457 kts | 268° |
| 2026-04-21 13:29 | 59.85480 | 17.58192 | 36335 ft | 457 kts | 268° |
| 2026-04-21 13:29 | 59.84860 | 17.45692 | 36332 ft | 457 kts | 268° |
| 2026-04-21 13:30 | 59.84224 | 17.33040 | 36335 ft | 456 kts | 268° |
| 2026-04-21 13:30 | 59.83585 | 17.20552 | 36331 ft | 456 kts | 267° |
| 2026-04-21 13:31 | 59.82921 | 17.07929 | 36329 ft | 456 kts | 267° |
| 2026-04-21 13:31 | 59.82219 | 16.95481 | 36333 ft | 456 kts | 265° |
| 2026-04-21 13:32 | 59.81288 | 16.82915 | 36334 ft | 457 kts | 264° |
| 2026-04-21 13:32 | 59.80245 | 16.70463 | 36337 ft | 457 kts | 263° |
| 2026-04-21 13:33 | 59.79205 | 16.58021 | 36336 ft | 456 kts | 264° |
| 2026-04-21 13:33 | 59.78202 | 16.45593 | 36338 ft | 456 kts | 264° |
| 2026-04-21 13:34 | 59.77201 | 16.33179 | 36337 ft | 455 kts | 264° |
| 2026-04-21 13:34 | 59.76178 | 16.20783 | 36338 ft | 455 kts | 263° |
| 2026-04-21 13:35 | 59.75137 | 16.08395 | 36340 ft | 455 kts | 263° |
| 2026-04-21 13:35 | 59.74092 | 15.96022 | 36343 ft | 455 kts | 263° |
| 2026-04-21 13:36 | 59.73033 | 15.83654 | 36344 ft | 455 kts | 263° |
| 2026-04-21 13:36 | 59.71955 | 15.71298 | 36346 ft | 455 kts | 263° |
| 2026-04-21 13:37 | 59.70863 | 15.58955 | 36345 ft | 455 kts | 263° |
| 2026-04-21 13:37 | 59.69772 | 15.46614 | 36343 ft | 454 kts | 262° |
| 2026-04-21 13:38 | 59.68856 | 15.36373 | 36345 ft | 454 kts | 262° |
| 2026-04-21 13:38 | 59.67738 | 15.24061 | 36347 ft | 454 kts | 262° |
| 2026-04-21 13:39 | 59.66608 | 15.11747 | 36352 ft | 454 kts | 262° |
| 2026-04-21 13:39 | 59.65496 | 14.99460 | 36403 ft | 455 kts | 260° |
| 2026-04-21 13:40 | 59.64245 | 14.87219 | 36354 ft | 454 kts | 262° |
| 2026-04-21 13:40 | 59.63120 | 14.74944 | 36354 ft | 454 kts | 262° |
| 2026-04-21 13:41 | 59.61989 | 14.62598 | 36350 ft | 454 kts | 262° |
| 2026-04-21 13:41 | 59.60802 | 14.50242 | 36352 ft | 454 kts | 261° |
| 2026-04-21 13:42 | 59.59600 | 14.38000 | 36355 ft | 454 kts | 261° |
| 2026-04-21 13:42 | 59.58390 | 14.25761 | 36356 ft | 454 kts | 261° |
| 2026-04-21 13:43 | 59.57170 | 14.13536 | 36361 ft | 454 kts | 261° |
| 2026-04-21 13:43 | 59.55939 | 14.01299 | 36366 ft | 454 kts | 260° |
| 2026-04-21 13:44 | 59.54701 | 13.89094 | 36371 ft | 454 kts | 260° |
| 2026-04-21 13:44 | 59.53448 | 13.76884 | 36376 ft | 454 kts | 260° |
| 2026-04-21 13:45 | 59.52185 | 13.64697 | 36384 ft | 454 kts | 260° |
| 2026-04-21 13:45 | 59.50904 | 13.52446 | 36388 ft | 454 kts | 259° |
| 2026-04-21 13:46 | 59.49614 | 13.40266 | 36390 ft | 454 kts | 259° |
| 2026-04-21 13:46 | 59.48314 | 13.28119 | 36389 ft | 454 kts | 259° |
| 2026-04-21 13:47 | 59.47005 | 13.15978 | 36389 ft | 453 kts | 259° |
| 2026-04-21 13:47 | 59.45697 | 13.03864 | 36390 ft | 453 kts | 259° |
| 2026-04-21 13:48 | 59.44369 | 12.91748 | 36391 ft | 453 kts | 259° |
| 2026-04-21 13:48 | 59.43022 | 12.79663 | 36394 ft | 453 kts | 259° |
| 2026-04-21 13:49 | 59.41674 | 12.67582 | 36400 ft | 453 kts | 259° |
| 2026-04-21 13:49 | 59.40324 | 12.55584 | 36401 ft | 453 kts | 258° |
| 2026-04-21 13:50 | 59.38949 | 12.43542 | 36403 ft | 452 kts | 258° |
| 2026-04-21 13:50 | 59.37564 | 12.31505 | 36402 ft | 452 kts | 258° |
| 2026-04-21 13:51 | 59.36178 | 12.19476 | 36405 ft | 452 kts | 258° |
| 2026-04-21 13:51 | 59.34778 | 12.07444 | 36406 ft | 452 kts | 258° |
| 2026-04-21 13:52 | 59.33359 | 11.95434 | 36409 ft | 452 kts | 258° |
| 2026-04-21 13:52 | 59.31921 | 11.83435 | 36409 ft | 452 kts | 257° |
| 2026-04-21 13:53 | 59.30395 | 11.71513 | 36410 ft | 452 kts | 256° |
| 2026-04-21 13:53 | 59.28770 | 11.59618 | 36416 ft | 452 kts | 255° |
| 2026-04-21 13:54 | 59.27123 | 11.47749 | 36424 ft | 452 kts | 256° |
| 2026-04-21 13:54 | 59.25482 | 11.35882 | 36447 ft | 452 kts | 256° |
| 2026-04-21 13:55 | 59.23847 | 11.24037 | 36474 ft | 452 kts | 255° |
| 2026-04-21 13:55 | 59.22200 | 11.12198 | 36497 ft | 452 kts | 255° |
| 2026-04-21 13:56 | 59.20536 | 11.00368 | 36518 ft | 451 kts | 255° |
| 2026-04-21 13:56 | 59.18858 | 10.88566 | 36528 ft | 451 kts | 255° |
| 2026-04-21 13:57 | 59.17174 | 10.76780 | 36525 ft | 451 kts | 255° |
| 2026-04-21 13:57 | 59.15480 | 10.64994 | 36510 ft | 451 kts | 255° |
| 2026-04-21 13:58 | 59.13778 | 10.53254 | 36441 ft | 450 kts | 254° |
| 2026-04-21 13:58 | 59.12069 | 10.41518 | 36445 ft | 450 kts | 254° |
| 2026-04-21 13:59 | 59.10351 | 10.29796 | 36447 ft | 450 kts | 254° |
| 2026-04-21 13:59 | 59.08619 | 10.18086 | 36446 ft | 450 kts | 254° |
| 2026-04-21 14:00 | 59.06879 | 10.06405 | 36438 ft | 450 kts | 253° |
| 2026-04-21 14:00 | 59.05129 | 9.94739 | 36442 ft | 449 kts | 253° |
| 2026-04-21 14:01 | 59.03365 | 9.83084 | 36448 ft | 449 kts | 253° |
| 2026-04-21 14:01 | 59.01592 | 9.71457 | 36452 ft | 449 kts | 253° |
| 2026-04-21 14:02 | 58.99813 | 9.59838 | 36446 ft | 449 kts | 253° |
| 2026-04-21 14:03 | 58.97141 | 9.42519 | 36446 ft | 449 kts | 253° |
| 2026-04-21 14:03 | 58.95335 | 9.30935 | 36444 ft | 449 kts | 252° |
| 2026-04-21 14:04 | 58.93526 | 9.19377 | 36442 ft | 448 kts | 252° |
| 2026-04-21 14:04 | 58.91705 | 9.07831 | 36443 ft | 448 kts | 252° |
| 2026-04-21 14:05 | 58.89868 | 8.96299 | 36445 ft | 448 kts | 252° |
| 2026-04-21 14:05 | 58.88026 | 8.84778 | 36448 ft | 448 kts | 252° |
| 2026-04-21 14:06 | 58.86166 | 8.73257 | 36445 ft | 448 kts | 252° |
| 2026-04-21 14:06 | 58.84302 | 8.61773 | 36443 ft | 448 kts | 252° |
| 2026-04-21 14:07 | 58.82426 | 8.50307 | 36444 ft | 448 kts | 251° |
| 2026-04-21 14:07 | 58.80546 | 8.38859 | 36445 ft | 448 kts | 251° |
| 2026-04-21 14:08 | 58.78659 | 8.27414 | 36445 ft | 448 kts | 251° |
| 2026-04-21 14:08 | 58.76759 | 8.15987 | 36444 ft | 448 kts | 251° |
| 2026-04-21 14:09 | 58.74842 | 8.04572 | 36445 ft | 448 kts | 251° |
| 2026-04-21 14:09 | 58.72914 | 7.93165 | 36446 ft | 448 kts | 251° |
| 2026-04-21 14:10 | 58.70980 | 7.81774 | 36447 ft | 448 kts | 251° |
| 2026-04-21 14:10 | 58.69050 | 7.70453 | 36450 ft | 448 kts | 250° |
| 2026-04-21 14:11 | 58.67096 | 7.59080 | 36454 ft | 448 kts | 250° |
| 2026-04-21 14:11 | 58.65462 | 7.49640 | 36453 ft | 448 kts | 250° |
| 2026-04-21 14:12 | 58.63492 | 7.38292 | 36457 ft | 448 kts | 250° |
| 2026-04-21 14:12 | 58.61516 | 7.26949 | 36457 ft | 448 kts | 250° |
| 2026-04-21 14:13 | 58.59528 | 7.15625 | 36457 ft | 448 kts | 250° |
| 2026-04-21 14:13 | 58.57522 | 7.04327 | 36458 ft | 448 kts | 250° |
| 2026-04-21 14:14 | 58.55510 | 6.93029 | 36454 ft | 448 kts | 250° |
| 2026-04-21 14:14 | 58.53491 | 6.81735 | 36454 ft | 448 kts | 249° |
| 2026-04-21 14:15 | 58.51460 | 6.70466 | 36455 ft | 448 kts | 249° |
| 2026-04-21 14:15 | 58.49417 | 6.59207 | 36459 ft | 448 kts | 249° |
| 2026-04-21 14:16 | 58.47375 | 6.48026 | 36461 ft | 448 kts | 249° |
| 2026-04-21 14:16 | 58.45314 | 6.36789 | 36464 ft | 448 kts | 249° |
| 2026-04-21 14:17 | 58.43238 | 6.25568 | 36467 ft | 448 kts | 249° |
| 2026-04-21 14:17 | 58.41154 | 6.14344 | 36470 ft | 448 kts | 249° |
| 2026-04-21 14:18 | 58.39066 | 6.03149 | 36475 ft | 448 kts | 249° |
| 2026-04-21 14:18 | 58.36960 | 5.91954 | 36479 ft | 448 kts | 249° |
| 2026-04-21 14:19 | 58.34846 | 5.80775 | 36483 ft | 448 kts | 249° |
| 2026-04-21 14:19 | 58.32724 | 5.69596 | 36488 ft | 449 kts | 248° |
| 2026-04-21 14:20 | 58.30605 | 5.58511 | 36491 ft | 449 kts | 248° |
| 2026-04-21 14:20 | 58.28462 | 5.47361 | 36492 ft | 449 kts | 248° |
| 2026-04-21 14:21 | 58.26309 | 5.36215 | 36496 ft | 449 kts | 248° |
| 2026-04-21 14:21 | 58.24136 | 5.25078 | 36501 ft | 449 kts | 248° |
| 2026-04-21 14:22 | 58.21962 | 5.13953 | 36504 ft | 450 kts | 248° |
| 2026-04-21 14:22 | 58.19777 | 5.02840 | 36508 ft | 450 kts | 248° |
| 2026-04-21 14:23 | 58.17575 | 4.91696 | 36811 ft | 453 kts | 248° |
| 2026-04-21 14:23 | 58.16465 | 4.86101 | 37027 ft | 454 kts | 248° |
| 2026-04-21 14:23 | 58.15347 | 4.80503 | 37247 ft | 455 kts | 248° |
| 2026-04-21 14:23 | 58.14223 | 4.74880 | 37447 ft | 456 kts | 248° |
| 2026-04-21 14:24 | 58.13110 | 4.69327 | 37664 ft | 457 kts | 248° |
| 2026-04-21 14:24 | 58.11975 | 4.63676 | 37862 ft | 458 kts | 248° |
| 2026-04-21 14:24 | 58.10841 | 4.58045 | 38072 ft | 459 kts | 248° |
| 2026-04-21 14:24 | 58.09702 | 4.52403 | 38266 ft | 460 kts | 248° |
| 2026-04-21 14:25 | 58.08564 | 4.46763 | 38463 ft | 461 kts | 248° |
| 2026-04-21 14:25 | 58.06262 | 4.35440 | 38522 ft | 462 kts | 248° |
| 2026-04-21 14:26 | 58.03942 | 4.24126 | 38523 ft | 462 kts | 248° |
| 2026-04-21 14:26 | 58.01629 | 4.12879 | 38531 ft | 462 kts | 248° |
| 2026-04-21 14:27 | 57.99287 | 4.01591 | 38522 ft | 462 kts | 248° |
| 2026-04-21 14:27 | 57.96946 | 3.90320 | 38535 ft | 462 kts | 248° |
| 2026-04-21 14:28 | 57.94592 | 3.79046 | 38533 ft | 462 kts | 248° |
| 2026-04-21 14:28 | 57.92224 | 3.67793 | 38542 ft | 463 kts | 248° |
| 2026-04-21 14:29 | 57.89499 | 3.56855 | 38544 ft | 462 kts | 238° |
| 2026-04-21 14:29 | 57.86193 | 3.46488 | 38549 ft | 462 kts | 238° |
| 2026-04-21 14:30 | 57.82880 | 3.36142 | 38556 ft | 462 kts | 238° |
| 2026-04-21 14:30 | 57.79582 | 3.25872 | 38556 ft | 462 kts | 238° |
| 2026-04-21 14:31 | 57.76258 | 3.15544 | 38558 ft | 462 kts | 238° |
| 2026-04-21 14:31 | 57.72926 | 3.05228 | 38560 ft | 462 kts | 238° |
| 2026-04-21 14:32 | 57.69586 | 2.94945 | 38557 ft | 462 kts | 238° |
| 2026-04-21 14:32 | 57.66228 | 2.84650 | 38553 ft | 462 kts | 238° |
| 2026-04-21 14:33 | 57.62889 | 2.74488 | 38548 ft | 462 kts | 238° |
| 2026-04-21 14:33 | 57.59507 | 2.64268 | 38547 ft | 462 kts | 237° |
| 2026-04-21 14:34 | 57.56133 | 2.54073 | 38546 ft | 463 kts | 238° |
| 2026-04-21 14:34 | 57.52750 | 2.43866 | 38553 ft | 463 kts | 237° |
| 2026-04-21 14:35 | 57.49360 | 2.33692 | 38555 ft | 463 kts | 237° |
| 2026-04-21 14:35 | 57.45960 | 2.23537 | 38557 ft | 463 kts | 237° |
| 2026-04-21 14:36 | 57.42549 | 2.13406 | 38568 ft | 463 kts | 237° |
| 2026-04-21 14:36 | 57.39125 | 2.03288 | 38570 ft | 463 kts | 237° |
| 2026-04-21 14:37 | 57.35696 | 1.93179 | 38573 ft | 463 kts | 237° |
| 2026-04-21 14:37 | 57.32261 | 1.83094 | 38574 ft | 463 kts | 237° |
| 2026-04-21 14:38 | 57.28812 | 1.73020 | 38578 ft | 463 kts | 237° |
| 2026-04-21 14:38 | 57.25357 | 1.62967 | 38582 ft | 463 kts | 237° |
| 2026-04-21 14:39 | 57.21891 | 1.52925 | 38575 ft | 463 kts | 237° |
| 2026-04-21 14:39 | 57.18417 | 1.42908 | 38577 ft | 463 kts | 237° |
| 2026-04-21 14:40 | 57.14939 | 1.32916 | 38578 ft | 463 kts | 237° |
| 2026-04-21 14:40 | 57.11471 | 1.23004 | 38583 ft | 463 kts | 237° |
| 2026-04-21 14:41 | 57.07971 | 1.13045 | 38585 ft | 463 kts | 236° |
| 2026-04-21 14:41 | 57.04471 | 1.03103 | 38584 ft | 463 kts | 236° |
| 2026-04-21 14:42 | 57.00967 | 0.93171 | 38583 ft | 463 kts | 236° |
| 2026-04-21 14:42 | 56.97451 | 0.83270 | 38582 ft | 463 kts | 236° |
| 2026-04-21 14:43 | 56.93921 | 0.73407 | 38581 ft | 463 kts | 236° |
| 2026-04-21 14:43 | 56.90383 | 0.63559 | 38578 ft | 463 kts | 236° |
| 2026-04-21 14:44 | 56.86852 | 0.53722 | 38582 ft | 463 kts | 236° |
| 2026-04-21 14:44 | 56.83315 | 0.43892 | 38582 ft | 463 kts | 236° |
| 2026-04-21 14:45 | 56.79762 | 0.34109 | 38582 ft | 462 kts | 236° |
| 2026-04-21 14:45 | 56.76198 | 0.24341 | 38581 ft | 462 kts | 236° |
| 2026-04-21 14:46 | 56.72630 | 0.14594 | 38585 ft | 462 kts | 236° |
| 2026-04-21 14:46 | 56.69065 | 0.04856 | 38582 ft | 462 kts | 236° |
| 2026-04-21 14:47 | 56.65509 | -0.04808 | 38584 ft | 462 kts | 236° |
| 2026-04-21 14:47 | 56.61926 | -0.14508 | 38582 ft | 462 kts | 236° |
| 2026-04-21 14:48 | 56.58324 | -0.24181 | 38584 ft | 462 kts | 236° |
| 2026-04-21 14:48 | 56.54718 | -0.33827 | 38577 ft | 462 kts | 236° |
| 2026-04-21 14:49 | 56.51115 | -0.43458 | 38580 ft | 462 kts | 236° |
| 2026-04-21 14:49 | 56.47498 | -0.53081 | 38584 ft | 462 kts | 236° |
| 2026-04-21 14:50 | 56.44490 | -0.61055 | 38583 ft | 462 kts | 236° |
| 2026-04-21 14:50 | 56.40247 | -0.72251 | 38582 ft | 462 kts | 235° |
| 2026-04-21 14:51 | 56.36611 | -0.81800 | 38583 ft | 461 kts | 235° |
| 2026-04-21 14:51 | 56.32971 | -0.91324 | 38578 ft | 461 kts | 235° |
| 2026-04-21 14:52 | 56.29320 | -1.00836 | 38575 ft | 461 kts | 235° |
| 2026-04-21 14:52 | 56.25671 | -1.10315 | 38574 ft | 461 kts | 235° |
| 2026-04-21 14:53 | 56.22021 | -1.19781 | 38573 ft | 460 kts | 235° |
| 2026-04-21 14:53 | 56.18360 | -1.29229 | 38570 ft | 460 kts | 235° |
| 2026-04-21 14:54 | 56.14686 | -1.38647 | 38574 ft | 460 kts | 235° |
| 2026-04-21 14:54 | 56.11631 | -1.46456 | 38572 ft | 460 kts | 235° |
| 2026-04-21 14:55 | 56.07954 | -1.55840 | 38575 ft | 460 kts | 235° |
| 2026-04-21 14:55 | 56.04271 | -1.65200 | 38580 ft | 459 kts | 235° |
| 2026-04-21 14:56 | 56.00588 | -1.74528 | 38576 ft | 459 kts | 235° |
| 2026-04-21 14:56 | 55.96903 | -1.83824 | 38584 ft | 458 kts | 235° |
| 2026-04-21 14:57 | 55.93209 | -1.93093 | 38579 ft | 458 kts | 234° |
| 2026-04-21 14:57 | 55.89509 | -2.02347 | 38574 ft | 458 kts | 234° |
| 2026-04-21 14:58 | 55.85803 | -2.11585 | 38575 ft | 458 kts | 234° |
| 2026-04-21 14:58 | 55.82093 | -2.20803 | 38571 ft | 458 kts | 234° |
| 2026-04-21 14:59 | 55.78372 | -2.29984 | 38570 ft | 458 kts | 234° |
| 2026-04-21 14:59 | 55.74641 | -2.39166 | 38563 ft | 458 kts | 234° |
| 2026-04-21 15:00 | 55.70912 | -2.48333 | 38553 ft | 458 kts | 234° |
| 2026-04-21 15:00 | 55.67180 | -2.57478 | 38551 ft | 458 kts | 234° |
| 2026-04-21 15:01 | 55.63433 | -2.66589 | 38549 ft | 457 kts | 234° |
| 2026-04-21 15:01 | 55.59686 | -2.75679 | 38547 ft | 457 kts | 234° |
| 2026-04-21 15:02 | 55.55940 | -2.84741 | 38539 ft | 456 kts | 234° |
| 2026-04-21 15:02 | 55.52193 | -2.93777 | 38538 ft | 455 kts | 234° |
| 2026-04-21 15:03 | 55.48449 | -3.02780 | 38534 ft | 455 kts | 234° |
| 2026-04-21 15:03 | 55.44693 | -3.11760 | 38526 ft | 455 kts | 234° |
| 2026-04-21 15:04 | 55.40931 | -3.20726 | 38527 ft | 455 kts | 234° |
| 2026-04-21 15:04 | 55.37175 | -3.29655 | 38521 ft | 454 kts | 234° |
| 2026-04-21 15:05 | 55.33427 | -3.38526 | 38518 ft | 454 kts | 234° |
| 2026-04-21 15:05 | 55.27758 | -3.51869 | 38513 ft | 454 kts | 234° |
| 2026-04-21 15:06 | 55.23974 | -3.60752 | 38508 ft | 453 kts | 234° |
| 2026-04-21 15:06 | 55.20195 | -3.69586 | 38503 ft | 453 kts | 234° |
| 2026-04-21 15:07 | 55.16411 | -3.78400 | 38499 ft | 453 kts | 233° |
| 2026-04-21 15:07 | 55.12616 | -3.87196 | 38498 ft | 453 kts | 233° |
| 2026-04-21 15:08 | 55.08841 | -3.95918 | 38501 ft | 452 kts | 233° |
| 2026-04-21 15:08 | 55.05037 | -4.04675 | 38493 ft | 452 kts | 233° |
| 2026-04-21 15:09 | 55.01227 | -4.13423 | 38490 ft | 451 kts | 233° |
| 2026-04-21 15:09 | 54.97446 | -4.22061 | 38482 ft | 451 kts | 233° |
| 2026-04-21 15:10 | 54.93637 | -4.30734 | 38485 ft | 451 kts | 233° |
| 2026-04-21 15:10 | 54.89833 | -4.39397 | 38477 ft | 450 kts | 233° |
| 2026-04-21 15:11 | 54.86022 | -4.48033 | 38475 ft | 450 kts | 233° |
| 2026-04-21 15:11 | 54.82206 | -4.56642 | 38465 ft | 449 kts | 233° |
| 2026-04-21 15:12 | 54.78384 | -4.65231 | 38459 ft | 449 kts | 233° |
| 2026-04-21 15:12 | 54.74558 | -4.73802 | 38459 ft | 449 kts | 233° |
| 2026-04-21 15:13 | 54.70725 | -4.82352 | 38457 ft | 449 kts | 233° |
| 2026-04-21 15:13 | 54.66891 | -4.90870 | 38455 ft | 449 kts | 233° |
| 2026-04-21 15:14 | 54.63054 | -4.99366 | 38221 ft | 447 kts | 233° |
| 2026-04-21 15:14 | 54.61171 | -5.03527 | 37633 ft | 445 kts | 233° |
| 2026-04-21 15:14 | 54.59273 | -5.07713 | 37081 ft | 442 kts | 233° |
| 2026-04-21 15:15 | 54.57387 | -5.11872 | 36539 ft | 438 kts | 233° |
| 2026-04-21 15:15 | 54.55514 | -5.16000 | 35968 ft | 436 kts | 233° |
| 2026-04-21 15:15 | 54.53650 | -5.20097 | 35391 ft | 434 kts | 233° |
| 2026-04-21 15:15 | 54.51790 | -5.24176 | 34824 ft | 431 kts | 234° |
| 2026-04-21 15:16 | 54.49830 | -5.28062 | 34231 ft | 430 kts | 226° |
| 2026-04-21 15:16 | 54.47501 | -5.31283 | 33700 ft | 429 kts | 217° |
| 2026-04-21 15:16 | 54.44900 | -5.33747 | 33183 ft | 426 kts | 211° |
| 2026-04-21 15:16 | 54.42248 | -5.35977 | 32638 ft | 421 kts | 211° |
| 2026-04-21 15:17 | 54.39628 | -5.38182 | 32103 ft | 416 kts | 212° |
| 2026-04-21 15:17 | 54.37043 | -5.40360 | 31587 ft | 411 kts | 213° |
| 2026-04-21 15:17 | 54.34454 | -5.42548 | 31018 ft | 405 kts | 214° |
| 2026-04-21 15:17 | 54.31942 | -5.44668 | 30359 ft | 400 kts | 214° |
| 2026-04-21 15:18 | 54.29465 | -5.46757 | 29597 ft | 395 kts | 214° |
| 2026-04-21 15:18 | 54.27006 | -5.48822 | 28825 ft | 392 kts | 213° |
| 2026-04-21 15:18 | 54.24561 | -5.50869 | 28043 ft | 389 kts | 213° |
| 2026-04-21 15:18 | 54.22140 | -5.52893 | 27306 ft | 386 kts | 212° |
| 2026-04-21 15:19 | 54.19721 | -5.54914 | 26599 ft | 384 kts | 212° |
| 2026-04-21 15:19 | 54.17321 | -5.56915 | 25931 ft | 382 kts | 211° |
| 2026-04-21 15:19 | 54.14966 | -5.58877 | 25305 ft | 380 kts | 211° |
| 2026-04-21 15:19 | 54.12595 | -5.60854 | 24675 ft | 378 kts | 210° |
| 2026-04-21 15:20 | 54.10204 | -5.62847 | 24050 ft | 376 kts | 210° |
| 2026-04-21 15:20 | 54.07860 | -5.64802 | 23346 ft | 374 kts | 209° |
| 2026-04-21 15:20 | 54.05562 | -5.66713 | 22722 ft | 371 kts | 208° |
| 2026-04-21 15:20 | 54.03253 | -5.68624 | 22216 ft | 368 kts | 208° |
| 2026-04-21 15:21 | 54.00962 | -5.70517 | 21716 ft | 364 kts | 208° |
| 2026-04-21 15:21 | 53.98693 | -5.72380 | 21225 ft | 361 kts | 207° |
| 2026-04-21 15:21 | 53.96331 | -5.73787 | 20729 ft | 360 kts | 195° |
| 2026-04-21 15:21 | 53.93860 | -5.74401 | 20271 ft | 358 kts | 184° |
| 2026-04-21 15:22 | 53.91379 | -5.74560 | 19805 ft | 355 kts | 183° |
| 2026-04-21 15:22 | 53.88929 | -5.74723 | 19365 ft | 351 kts | 182° |
| 2026-04-21 15:22 | 53.86503 | -5.74896 | 18934 ft | 347 kts | 182° |
| 2026-04-21 15:22 | 53.84098 | -5.75071 | 18474 ft | 343 kts | 182° |
| 2026-04-21 15:23 | 53.81722 | -5.75248 | 17968 ft | 341 kts | 181° |
| 2026-04-21 15:23 | 53.79359 | -5.75423 | 17430 ft | 338 kts | 181° |
| 2026-04-21 15:23 | 53.77018 | -5.75593 | 16926 ft | 336 kts | 181° |
| 2026-04-21 15:23 | 53.74685 | -5.75761 | 16414 ft | 334 kts | 181° |
| 2026-04-21 15:24 | 53.72376 | -5.75922 | 15962 ft | 331 kts | 181° |
| 2026-04-21 15:24 | 53.70084 | -5.76104 | 15563 ft | 329 kts | 183° |
| 2026-04-21 15:24 | 53.67855 | -5.77003 | 15148 ft | 331 kts | 200° |
| 2026-04-21 15:24 | 53.65875 | -5.78976 | 14730 ft | 334 kts | 217° |
| 2026-04-21 15:25 | 53.64317 | -5.81880 | 14300 ft | 337 kts | 235° |
| 2026-04-21 15:25 | 53.63338 | -5.85465 | 13830 ft | 339 kts | 253° |
| 2026-04-21 15:25 | 53.62813 | -5.89331 | 13385 ft | 338 kts | 256° |
| 2026-04-21 15:25 | 53.62306 | -5.93182 | 12975 ft | 335 kts | 256° |
| 2026-04-21 15:26 | 53.61797 | -5.96996 | 12543 ft | 333 kts | 256° |
| 2026-04-21 15:26 | 53.61286 | -6.00797 | 12079 ft | 332 kts | 255° |
| 2026-04-21 15:26 | 53.60773 | -6.04595 | 11620 ft | 332 kts | 255° |
| 2026-04-21 15:26 | 53.60258 | -6.08372 | 11154 ft | 331 kts | 255° |
| 2026-04-21 15:27 | 53.59742 | -6.12150 | 10681 ft | 331 kts | 255° |
| 2026-04-21 15:27 | 53.59235 | -6.15874 | 10510 ft | 321 kts | 255° |
| 2026-04-21 15:27 | 53.58749 | -6.19475 | 10350 ft | 311 kts | 255° |
| 2026-04-21 15:27 | 53.58274 | -6.22993 | 10039 ft | 308 kts | 255° |
| 2026-04-21 15:28 | 53.57801 | -6.26481 | 9736 ft | 303 kts | 254° |
| 2026-04-21 15:28 | 53.57328 | -6.29930 | 9470 ft | 298 kts | 254° |
| 2026-04-21 15:28 | 53.56870 | -6.33264 | 9331 ft | 286 kts | 254° |
| 2026-04-21 15:28 | 53.56432 | -6.36450 | 9178 ft | 273 kts | 254° |
| 2026-04-21 15:29 | 53.56144 | -6.39574 | 8823 ft | 269 kts | 261° |
| 2026-04-21 15:29 | 53.55990 | -6.41814 | 8503 ft | 267 kts | 261° |
| 2026-04-21 15:29 | 53.55786 | -6.44740 | 8084 ft | 266 kts | 261° |
| 2026-04-21 15:29 | 53.55565 | -6.47824 | 7644 ft | 265 kts | 261° |
| 2026-04-21 15:30 | 53.55343 | -6.50898 | 7185 ft | 265 kts | 261° |
| 2026-04-21 15:30 | 53.55045 | -6.54955 | 6558 ft | 263 kts | 261° |
| 2026-04-21 15:30 | 53.54824 | -6.58002 | 6064 ft | 262 kts | 261° |
| 2026-04-21 15:30 | 53.54676 | -6.60050 | 5737 ft | 261 kts | 261° |
| 2026-04-21 15:31 | 53.54281 | -6.62922 | 5569 ft | 244 kts | 242° |
| 2026-04-21 15:31 | 53.53362 | -6.65213 | 5262 ft | 231 kts | 218° |
| 2026-04-21 15:31 | 53.52086 | -6.66715 | 4917 ft | 220 kts | 197° |
| 2026-04-21 15:31 | 53.50653 | -6.67380 | 4592 ft | 210 kts | 178° |
| 2026-04-21 15:32 | 53.49195 | -6.67590 | 4258 ft | 210 kts | 177° |
| 2026-04-21 15:32 | 53.47750 | -6.67778 | 4054 ft | 206 kts | 171° |
| 2026-04-21 15:32 | 53.46475 | -6.67075 | 3933 ft | 188 kts | 135° |
| 2026-04-21 15:32 | 53.45743 | -6.65362 | 3804 ft | 180 kts | 105° |
| 2026-04-21 15:33 | 53.45575 | -6.63293 | 3672 ft | 180 kts | 94° |
| 2026-04-21 15:33 | 53.45471 | -6.61197 | 3586 ft | 180 kts | 94° |
| 2026-04-21 15:33 | 53.45364 | -6.59096 | 3533 ft | 181 kts | 94° |
| 2026-04-21 15:33 | 53.45256 | -6.56997 | 3484 ft | 180 kts | 94° |
| 2026-04-21 15:34 | 53.45147 | -6.54906 | 3401 ft | 180 kts | 94° |
| 2026-04-21 15:34 | 53.45039 | -6.52842 | 3219 ft | 175 kts | 94° |
| 2026-04-21 15:34 | 53.44933 | -6.50813 | 3021 ft | 173 kts | 94° |
| 2026-04-21 15:34 | 53.44829 | -6.48839 | 2793 ft | 168 kts | 94° |
| 2026-04-21 15:35 | 53.44727 | -6.46915 | 2573 ft | 165 kts | 94° |
| 2026-04-21 15:35 | 53.44627 | -6.45027 | 2328 ft | 158 kts | 94° |
| 2026-04-21 15:35 | 53.44532 | -6.43247 | 2121 ft | 147 kts | 94° |
| 2026-04-21 15:35 | 53.44444 | -6.41585 | 1922 ft | 140 kts | 94° |
| 2026-04-21 15:36 | 53.44358 | -6.39990 | 1731 ft | 135 kts | 92° |
| 2026-04-21 15:36 | 53.44277 | -6.38459 | 1549 ft | 128 kts | 92° |
| 2026-04-21 15:36 | 53.44194 | -6.36987 | 1371 ft | 125 kts | 93° |
| 2026-04-21 15:36 | 53.44114 | -6.35520 | 1162 ft | 127 kts | 92° |
| 2026-04-21 15:37 | 53.44037 | -6.34063 | 952 ft | 125 kts | 92° |
| 2026-04-21 15:37 | 53.43951 | -6.32606 | 793 ft | 127 kts | 91° |
| 2026-04-21 15:37 | 53.43877 | -6.31145 | 658 ft | 125 kts | 91° |
| 2026-04-21 15:37 | 53.43800 | -6.29706 | 473 ft | 123 kts | 90° |
| 2026-04-21 15:38 | 53.43726 | -6.28239 | 277 ft | 126 kts | 91° |
| 2026-04-21 15:38 | 53.43650 | -6.26852 | 212 ft | 108 kts | 94° |
| 2026-04-21 15:38 | 53.43596 | -6.25864 | 214 ft | 59 kts | 95° |
| 2026-04-21 15:38 | 53.43558 | -6.25322 | 214 ft | 30 kts | 112° |
| 2026-04-21 15:39 | 53.43480 | -6.25083 | 212 ft | 17 kts | 121° |
| 2026-04-21 15:39 | 53.43420 | -6.24979 | 211 ft | 11 kts | 178° |
| 2026-04-21 15:39 | 53.43380 | -6.25070 | 219 ft | 11 kts | 274° |
| 2026-04-21 15:39 | 53.43387 | -6.25204 | 219 ft | 12 kts | 275° |
| 2026-04-21 15:40 | 53.43396 | -6.25352 | 211 ft | 13 kts | 276° |
| 2026-04-21 15:40 | 53.43405 | -6.25524 | 211 ft | 17 kts | 275° |
| 2026-04-21 15:40 | 53.43363 | -6.25652 | 213 ft | 14 kts | 175° |
| 2026-04-21 15:40 | 53.43269 | -6.25586 | 211 ft | 15 kts | 154° |
| 2026-04-21 15:41 | 53.43171 | -6.25511 | 218 ft | 16 kts | 157° |
| 2026-04-21 15:41 | 53.43064 | -6.25438 | 213 ft | 17 kts | 157° |
| 2026-04-21 15:41 | 53.42953 | -6.25357 | 215 ft | 18 kts | 156° |
| 2026-04-21 15:41 | 53.42837 | -6.25273 | 217 ft | 17 kts | 156° |
| 2026-04-21 15:42 | 53.42795 | -6.25141 | 211 ft | 13 kts | 89° |
| 2026-04-21 15:42 | 53.42749 | -6.25013 | 211 ft | 14 kts | 147° |
| 2026-04-21 15:42 | 53.42667 | -6.24923 | 219 ft | 12 kts | 137° |
| 2026-04-21 15:42 | 53.42683 | -6.24821 | 211 ft | 9 kts | 52° |
| 2026-04-21 15:43 | 53.42718 | -6.24745 | 211 ft | 6 kts | 45° |
| 2026-04-21 15:43 | 53.42756 | -6.24741 | 211 ft | 6 kts | 2° |
| 2026-04-21 15:43 | 53.42773 | -6.24740 | 211 ft | 0 kts | 2° |